sensor_id;sensor_type;location;lat;lon;timestamp;temperature;humidity
44647;DHT22;56315;-33.902;151.160;2022-07-25T00:01:53;24.30;99.90
44647;DHT22;56315;-33.902;151.160;2022-07-25T00:04:21;24.70;99.90
44647;DHT22;56315;-33.902;151.160;2022-07-25T00:06:49;24.60;99.90
44647;DHT22;56315;-33.902;151.160;2022-07-25T00:09:16;24.30;99.40
44647;DHT22;56315;-33.902;151.160;2022-07-25T00:11:44;24.30;99.90
44647;DHT22;56315;-33.902;151.160;2022-07-25T00:14:11;24.50;99.50
44647;DHT22;56315;-33.902;151.160;2022-07-25T00:16:38;24.80;97.90
44647;DHT22;56315;-33.902;151.160;2022-07-25T00:19:06;24.90;99.00
44647;DHT22;56315;-33.902;151.160;2022-07-25T00:21:33;25.30;97.60
44647;DHT22;56315;-33.902;151.160;2022-07-25T00:24:01;25.40;98.60
44647;DHT22;56315;-33.902;151.160;2022-07-25T00:26:28;25.10;97.50
44647;DHT22;56315;-33.902;151.160;2022-07-25T00:28:55;24.40;97.70
44647;DHT22;56315;-33.902;151.160;2022-07-25T00:31:23;24.40;98.60
44647;DHT22;56315;-33.902;151.160;2022-07-25T00:33:50;24.70;97.80
44647;DHT22;56315;-33.902;151.160;2022-07-25T00:36:17;25.10;98.40
44647;DHT22;56315;-33.902;151.160;2022-07-25T00:38:45;25.20;96.80
44647;DHT22;56315;-33.902;151.160;2022-07-25T00:41:12;24.70;97.10
44647;DHT22;56315;-33.902;151.160;2022-07-25T00:43:46;24.80;97.40
44647;DHT22;56315;-33.902;151.160;2022-07-25T00:46:15;25.40;97.40
44647;DHT22;56315;-33.902;151.160;2022-07-25T00:48:43;25.60;95.70
44647;DHT22;56315;-33.902;151.160;2022-07-25T00:51:11;25.90;95.90
44647;DHT22;56315;-33.902;151.160;2022-07-25T00:53:38;25.80;95.20
44647;DHT22;56315;-33.902;151.160;2022-07-25T00:56:06;25.30;96.90
44647;DHT22;56315;-33.902;151.160;2022-07-25T00:58:34;25.60;95.00
44647;DHT22;56315;-33.902;151.160;2022-07-25T01:01:02;25.30;94.70
44647;DHT22;56315;-33.902;151.160;2022-07-25T01:03:30;25.20;96.50
44647;DHT22;56315;-33.902;151.160;2022-07-25T01:05:57;25.90;96.00
44647;DHT22;56315;-33.902;151.160;2022-07-25T01:08:25;26.70;94.80
44647;DHT22;56315;-33.902;151.160;2022-07-25T01:10:52;27.00;93.10
44647;DHT22;56315;-33.902;151.160;2022-07-25T01:13:19;26.20;93.10
44647;DHT22;56315;-33.902;151.160;2022-07-25T01:15:47;26.10;95.20
44647;DHT22;56315;-33.902;151.160;2022-07-25T01:18:14;26.50;95.40
44647;DHT22;56315;-33.902;151.160;2022-07-25T01:20:42;26.90;93.00
44647;DHT22;56315;-33.902;151.160;2022-07-25T01:23:09;27.10;93.90
44647;DHT22;56315;-33.902;151.160;2022-07-25T01:25:36;27.30;93.10
44647;DHT22;56315;-33.902;151.160;2022-07-25T01:28:04;27.20;91.60
44647;DHT22;56315;-33.902;151.160;2022-07-25T01:30:31;26.40;92.80
44647;DHT22;56315;-33.902;151.160;2022-07-25T01:33:00;26.60;93.90
44647;DHT22;56315;-33.902;151.160;2022-07-25T01:35:27;26.80;92.10
44647;DHT22;56315;-33.902;151.160;2022-07-25T01:37:55;26.40;92.60
44647;DHT22;56315;-33.902;151.160;2022-07-25T01:40:22;25.90;93.60
44647;DHT22;56315;-33.902;151.160;2022-07-25T01:42:50;25.60;94.00
44647;DHT22;56315;-33.902;151.160;2022-07-25T01:45:17;25.60;94.10
44647;DHT22;56315;-33.902;151.160;2022-07-25T01:47:46;25.20;93.00
44647;DHT22;56315;-33.902;151.160;2022-07-25T01:50:14;25.00;94.80
44647;DHT22;56315;-33.902;151.160;2022-07-25T01:52:42;25.30;94.50
44647;DHT22;56315;-33.902;151.160;2022-07-25T01:55:10;26.10;94.10
44647;DHT22;56315;-33.902;151.160;2022-07-25T01:57:38;26.60;92.30
44647;DHT22;56315;-33.902;151.160;2022-07-25T02:00:08;26.60;92.80
44647;DHT22;56315;-33.902;151.160;2022-07-25T02:02:37;27.10;91.50
44647;DHT22;56315;-33.902;151.160;2022-07-25T02:05:05;27.30;91.00
44647;DHT22;56315;-33.902;151.160;2022-07-25T02:07:33;27.30;91.10
44647;DHT22;56315;-33.902;151.160;2022-07-25T02:10:00;27.20;90.50
44647;DHT22;56315;-33.902;151.160;2022-07-25T02:12:28;26.90;90.60
44647;DHT22;56315;-33.902;151.160;2022-07-25T02:14:55;26.20;91.20
44647;DHT22;56315;-33.902;151.160;2022-07-25T02:17:23;25.90;91.80
44647;DHT22;56315;-33.902;151.160;2022-07-25T02:19:50;25.90;92.90
44647;DHT22;56315;-33.902;151.160;2022-07-25T02:22:17;26.60;91.20
44647;DHT22;56315;-33.902;151.160;2022-07-25T02:24:45;26.70;90.80
44647;DHT22;56315;-33.902;151.160;2022-07-25T02:27:12;26.80;90.10
44647;DHT22;56315;-33.902;151.160;2022-07-25T02:29:39;26.90;91.00
44647;DHT22;56315;-33.902;151.160;2022-07-25T02:32:07;26.90;91.10
44647;DHT22;56315;-33.902;151.160;2022-07-25T02:34:34;27.40;91.40
44647;DHT22;56315;-33.902;151.160;2022-07-25T02:37:02;28.10;89.80
44647;DHT22;56315;-33.902;151.160;2022-07-25T02:39:29;27.90;89.30
44647;DHT22;56315;-33.902;151.160;2022-07-25T02:41:56;27.80;89.10
44647;DHT22;56315;-33.902;151.160;2022-07-25T02:44:25;27.30;89.20
44647;DHT22;56315;-33.902;151.160;2022-07-25T02:46:53;27.20;89.10
44647;DHT22;56315;-33.902;151.160;2022-07-25T02:49:20;27.40;88.70
44647;DHT22;56315;-33.902;151.160;2022-07-25T02:51:48;27.90;88.30
44647;DHT22;56315;-33.902;151.160;2022-07-25T02:54:15;28.30;87.70
44647;DHT22;56315;-33.902;151.160;2022-07-25T02:56:42;28.80;86.20
44647;DHT22;56315;-33.902;151.160;2022-07-25T02:59:10;29.00;86.40
44647;DHT22;56315;-33.902;151.160;2022-07-25T03:01:37;28.70;85.60
44647;DHT22;56315;-33.902;151.160;2022-07-25T03:04:04;28.80;85.50
44647;DHT22;56315;-33.902;151.160;2022-07-25T03:06:32;29.00;84.90
44647;DHT22;56315;-33.902;151.160;2022-07-25T03:08:59;29.20;83.40
44647;DHT22;56315;-33.902;151.160;2022-07-25T03:11:26;29.00;84.10
44647;DHT22;56315;-33.902;151.160;2022-07-25T03:13:54;28.90;84.20
44647;DHT22;56315;-33.902;151.160;2022-07-25T03:16:21;28.00;85.60
44647;DHT22;56315;-33.902;151.160;2022-07-25T03:18:48;27.50;87.60
44647;DHT22;56315;-33.902;151.160;2022-07-25T03:21:16;27.40;87.40
44647;DHT22;56315;-33.902;151.160;2022-07-25T03:23:44;27.70;88.00
44647;DHT22;56315;-33.902;151.160;2022-07-25T03:26:11;28.20;87.10
44647;DHT22;56315;-33.902;151.160;2022-07-25T03:28:38;28.60;86.40
44647;DHT22;56315;-33.902;151.160;2022-07-25T03:31:06;28.80;83.90
44647;DHT22;56315;-33.902;151.160;2022-07-25T03:33:33;29.20;83.10
44647;DHT22;56315;-33.902;151.160;2022-07-25T03:36:00;29.20;83.70
44647;DHT22;56315;-33.902;151.160;2022-07-25T03:38:28;29.20;83.00
44647;DHT22;56315;-33.902;151.160;2022-07-25T03:40:55;28.80;83.40
44647;DHT22;56315;-33.902;151.160;2022-07-25T03:43:22;27.40;85.60
44647;DHT22;56315;-33.902;151.160;2022-07-25T03:45:50;26.20;89.00
44647;DHT22;56315;-33.902;151.160;2022-07-25T03:48:18;25.10;90.40
44647;DHT22;56315;-33.902;151.160;2022-07-25T03:50:46;24.00;92.60
44647;DHT22;56315;-33.902;151.160;2022-07-25T03:53:13;23.40;93.60
44647;DHT22;56315;-33.902;151.160;2022-07-25T03:55:40;23.10;94.50
44647;DHT22;56315;-33.902;151.160;2022-07-25T03:58:08;22.90;95.50
44647;DHT22;56315;-33.902;151.160;2022-07-25T04:00:35;22.90;95.70
44647;DHT22;56315;-33.902;151.160;2022-07-25T04:03:02;22.60;95.60
44647;DHT22;56315;-33.902;151.160;2022-07-25T04:05:30;22.40;96.60
44647;DHT22;56315;-33.902;151.160;2022-07-25T04:07:57;22.30;97.60
44647;DHT22;56315;-33.902;151.160;2022-07-25T04:10:24;22.20;96.90
44647;DHT22;56315;-33.902;151.160;2022-07-25T04:12:52;21.90;97.50
44647;DHT22;56315;-33.902;151.160;2022-07-25T04:15:19;21.60;97.90
44647;DHT22;56315;-33.902;151.160;2022-07-25T04:17:46;21.40;98.80
44647;DHT22;56315;-33.902;151.160;2022-07-25T04:20:14;21.30;99.50
44647;DHT22;56315;-33.902;151.160;2022-07-25T04:22:41;21.20;99.90
44647;DHT22;56315;-33.902;151.160;2022-07-25T04:25:09;21.20;99.90
44647;DHT22;56315;-33.902;151.160;2022-07-25T04:27:36;21.30;99.90
44647;DHT22;56315;-33.902;151.160;2022-07-25T04:30:04;21.30;99.90
44647;DHT22;56315;-33.902;151.160;2022-07-25T04:32:31;21.30;99.90
44647;DHT22;56315;-33.902;151.160;2022-07-25T04:34:58;21.30;99.60
44647;DHT22;56315;-33.902;151.160;2022-07-25T04:37:26;21.30;99.70
44647;DHT22;56315;-33.902;151.160;2022-07-25T04:39:53;21.50;99.40
44647;DHT22;56315;-33.902;151.160;2022-07-25T04:42:20;21.50;99.40
44647;DHT22;56315;-33.902;151.160;2022-07-25T04:44:48;22.10;98.50
44647;DHT22;56315;-33.902;151.160;2022-07-25T04:47:15;22.80;97.80
44647;DHT22;56315;-33.902;151.160;2022-07-25T04:49:42;23.00;96.60
44647;DHT22;56315;-33.902;151.160;2022-07-25T04:52:10;22.60;97.70
44647;DHT22;56315;-33.902;151.160;2022-07-25T04:54:37;21.90;97.70
44647;DHT22;56315;-33.902;151.160;2022-07-25T04:57:04;22.10;98.80
44647;DHT22;56315;-33.902;151.160;2022-07-25T04:59:34;21.70;98.30
44647;DHT22;56315;-33.902;151.160;2022-07-25T05:02:02;21.20;99.60
44647;DHT22;56315;-33.902;151.160;2022-07-25T05:04:29;20.60;99.90
44647;DHT22;56315;-33.902;151.160;2022-07-25T05:06:56;20.30;99.90
44647;DHT22;56315;-33.902;151.160;2022-07-25T05:09:24;20.00;99.90
44647;DHT22;56315;-33.902;151.160;2022-07-25T05:11:53;19.70;99.90
44647;DHT22;56315;-33.902;151.160;2022-07-25T05:14:20;19.50;99.90
44647;DHT22;56315;-33.902;151.160;2022-07-25T05:16:48;19.30;99.90
44647;DHT22;56315;-33.902;151.160;2022-07-25T05:19:15;19.20;99.90
44647;DHT22;56315;-33.902;151.160;2022-07-25T05:21:43;19.10;99.90
44647;DHT22;56315;-33.902;151.160;2022-07-25T05:24:10;19.00;99.90
44647;DHT22;56315;-33.902;151.160;2022-07-25T05:26:39;18.80;99.90
44647;DHT22;56315;-33.902;151.160;2022-07-25T05:29:06;18.70;99.90
44647;DHT22;56315;-33.902;151.160;2022-07-25T05:31:33;18.50;99.90
44647;DHT22;56315;-33.902;151.160;2022-07-25T05:34:01;18.40;99.90
44647;DHT22;56315;-33.902;151.160;2022-07-25T05:36:28;18.30;99.90
44647;DHT22;56315;-33.902;151.160;2022-07-25T05:38:56;18.30;99.90
44647;DHT22;56315;-33.902;151.160;2022-07-25T05:41:23;18.20;99.90
44647;DHT22;56315;-33.902;151.160;2022-07-25T05:43:50;18.20;99.90
44647;DHT22;56315;-33.902;151.160;2022-07-25T05:46:18;18.20;99.90
44647;DHT22;56315;-33.902;151.160;2022-07-25T05:48:45;18.10;99.90
44647;DHT22;56315;-33.902;151.160;2022-07-25T05:51:12;18.10;99.90
44647;DHT22;56315;-33.902;151.160;2022-07-25T05:53:40;18.10;99.90
44647;DHT22;56315;-33.902;151.160;2022-07-25T05:56:09;18.00;99.90
44647;DHT22;56315;-33.902;151.160;2022-07-25T06:08:42;17.70;99.90
44647;DHT22;56315;-33.902;151.160;2022-07-25T06:11:10;17.70;99.90
44647;DHT22;56315;-33.902;151.160;2022-07-25T06:13:38;17.70;99.90
44647;DHT22;56315;-33.902;151.160;2022-07-25T06:16:05;17.60;99.90
44647;DHT22;56315;-33.902;151.160;2022-07-25T06:18:33;17.50;99.90
44647;DHT22;56315;-33.902;151.160;2022-07-25T06:21:00;17.50;99.90
44647;DHT22;56315;-33.902;151.160;2022-07-25T06:23:27;17.40;99.90
44647;DHT22;56315;-33.902;151.160;2022-07-25T06:25:55;17.40;99.90
44647;DHT22;56315;-33.902;151.160;2022-07-25T06:28:22;17.30;99.90
44647;DHT22;56315;-33.902;151.160;2022-07-25T06:30:49;17.30;99.90
44647;DHT22;56315;-33.902;151.160;2022-07-25T06:33:17;17.20;99.90
44647;DHT22;56315;-33.902;151.160;2022-07-25T06:35:44;17.20;99.90
44647;DHT22;56315;-33.902;151.160;2022-07-25T06:38:11;17.10;99.90
44647;DHT22;56315;-33.902;151.160;2022-07-25T06:40:39;17.10;99.90
44647;DHT22;56315;-33.902;151.160;2022-07-25T06:43:06;17.00;99.90
44647;DHT22;56315;-33.902;151.160;2022-07-25T06:45:33;16.90;99.90
44647;DHT22;56315;-33.902;151.160;2022-07-25T06:48:01;16.90;99.90
44647;DHT22;56315;-33.902;151.160;2022-07-25T06:50:28;16.80;99.90
44647;DHT22;56315;-33.902;151.160;2022-07-25T06:52:56;16.70;99.90
44647;DHT22;56315;-33.902;151.160;2022-07-25T07:00:14;16.60;99.90
44647;DHT22;56315;-33.902;151.160;2022-07-25T07:02:50;16.50;99.90
44647;DHT22;56315;-33.902;151.160;2022-07-25T07:05:18;16.40;99.90
44647;DHT22;56315;-33.902;151.160;2022-07-25T07:07:46;16.40;99.90
44647;DHT22;56315;-33.902;151.160;2022-07-25T07:10:14;16.30;99.90
44647;DHT22;56315;-33.902;151.160;2022-07-25T07:15:52;16.20;99.90
44647;DHT22;56315;-33.902;151.160;2022-07-25T07:18:19;16.10;99.90
44647;DHT22;56315;-33.902;151.160;2022-07-25T07:20:47;16.00;99.90
44647;DHT22;56315;-33.902;151.160;2022-07-25T07:23:15;16.00;99.90
44647;DHT22;56315;-33.902;151.160;2022-07-25T07:25:42;15.90;99.90
44647;DHT22;56315;-33.902;151.160;2022-07-25T07:28:11;15.90;99.90
44647;DHT22;56315;-33.902;151.160;2022-07-25T07:30:38;15.80;99.90
44647;DHT22;56315;-33.902;151.160;2022-07-25T07:33:05;15.80;99.90
44647;DHT22;56315;-33.902;151.160;2022-07-25T07:35:33;15.80;99.90
44647;DHT22;56315;-33.902;151.160;2022-07-25T07:38:00;15.70;99.90
44647;DHT22;56315;-33.902;151.160;2022-07-25T07:40:28;15.70;99.90
44647;DHT22;56315;-33.902;151.160;2022-07-25T07:42:55;15.70;99.90
44647;DHT22;56315;-33.902;151.160;2022-07-25T07:45:26;15.70;99.90
44647;DHT22;56315;-33.902;151.160;2022-07-25T07:47:54;15.70;99.90
44647;DHT22;56315;-33.902;151.160;2022-07-25T07:50:26;15.60;99.90
44647;DHT22;56315;-33.902;151.160;2022-07-25T07:52:54;15.60;99.90
44647;DHT22;56315;-33.902;151.160;2022-07-25T07:55:22;15.50;99.90
44647;DHT22;56315;-33.902;151.160;2022-07-25T07:58:08;15.50;99.90
44647;DHT22;56315;-33.902;151.160;2022-07-25T08:00:35;15.40;99.90
44647;DHT22;56315;-33.902;151.160;2022-07-25T08:03:05;15.30;99.90
44647;DHT22;56315;-33.902;151.160;2022-07-25T08:05:39;15.30;99.90
44647;DHT22;56315;-33.902;151.160;2022-07-25T08:08:09;15.10;99.90
44647;DHT22;56315;-33.902;151.160;2022-07-25T08:10:38;15.10;99.90
44647;DHT22;56315;-33.902;151.160;2022-07-25T08:13:18;15.10;99.90
44647;DHT22;56315;-33.902;151.160;2022-07-25T08:15:48;15.10;99.90
44647;DHT22;56315;-33.902;151.160;2022-07-25T08:18:17;15.10;99.90
44647;DHT22;56315;-33.902;151.160;2022-07-25T08:20:48;15.10;99.90
44647;DHT22;56315;-33.902;151.160;2022-07-25T08:23:16;15.10;99.90
44647;DHT22;56315;-33.902;151.160;2022-07-25T08:25:45;15.10;99.90
44647;DHT22;56315;-33.902;151.160;2022-07-25T08:28:12;15.10;99.90
44647;DHT22;56315;-33.902;151.160;2022-07-25T08:30:41;15.10;99.90
44647;DHT22;56315;-33.902;151.160;2022-07-25T08:33:10;15.10;99.90
44647;DHT22;56315;-33.902;151.160;2022-07-25T08:35:48;15.20;99.90
44647;DHT22;56315;-33.902;151.160;2022-07-25T08:38:18;15.20;99.90
44647;DHT22;56315;-33.902;151.160;2022-07-25T08:40:45;15.20;99.90
44647;DHT22;56315;-33.902;151.160;2022-07-25T08:43:14;15.20;99.90
44647;DHT22;56315;-33.902;151.160;2022-07-25T08:45:46;15.20;99.90
44647;DHT22;56315;-33.902;151.160;2022-07-25T08:48:17;15.20;99.90
44647;DHT22;56315;-33.902;151.160;2022-07-25T08:50:46;15.20;99.90
44647;DHT22;56315;-33.902;151.160;2022-07-25T08:53:15;15.10;99.90
44647;DHT22;56315;-33.902;151.160;2022-07-25T08:55:44;15.10;99.90
44647;DHT22;56315;-33.902;151.160;2022-07-25T08:58:13;15.10;99.90
44647;DHT22;56315;-33.902;151.160;2022-07-25T09:00:42;15.10;99.90
44647;DHT22;56315;-33.902;151.160;2022-07-25T09:03:09;15.00;99.90
44647;DHT22;56315;-33.902;151.160;2022-07-25T09:05:38;15.00;99.90
44647;DHT22;56315;-33.902;151.160;2022-07-25T09:08:14;14.90;99.90
44647;DHT22;56315;-33.902;151.160;2022-07-25T09:10:50;15.00;99.90
44647;DHT22;56315;-33.902;151.160;2022-07-25T09:13:19;15.10;99.90
44647;DHT22;56315;-33.902;151.160;2022-07-25T09:15:51;15.10;99.90
44647;DHT22;56315;-33.902;151.160;2022-07-25T09:18:23;15.10;99.90
44647;DHT22;56315;-33.902;151.160;2022-07-25T09:20:59;15.10;99.90
44647;DHT22;56315;-33.902;151.160;2022-07-25T09:23:35;15.20;99.90
44647;DHT22;56315;-33.902;151.160;2022-07-25T09:26:10;15.20;99.90
44647;DHT22;56315;-33.902;151.160;2022-07-25T09:28:46;15.20;99.90
44647;DHT22;56315;-33.902;151.160;2022-07-25T09:31:15;15.10;99.90
44647;DHT22;56315;-33.902;151.160;2022-07-25T09:33:50;15.00;99.90
44647;DHT22;56315;-33.902;151.160;2022-07-25T09:36:18;15.00;99.90
44647;DHT22;56315;-33.902;151.160;2022-07-25T09:38:56;15.00;99.90
44647;DHT22;56315;-33.902;151.160;2022-07-25T09:41:39;14.90;99.90
44647;DHT22;56315;-33.902;151.160;2022-07-25T09:44:20;14.90;99.90
44647;DHT22;56315;-33.902;151.160;2022-07-25T09:47:08;14.90;99.90
44647;DHT22;56315;-33.902;151.160;2022-07-25T09:49:43;14.90;99.90
44647;DHT22;56315;-33.902;151.160;2022-07-25T09:52:12;14.90;99.90
44647;DHT22;56315;-33.902;151.160;2022-07-25T09:54:40;14.80;99.90
44647;DHT22;56315;-33.902;151.160;2022-07-25T09:57:07;14.80;99.90
44647;DHT22;56315;-33.902;151.160;2022-07-25T09:59:35;14.80;99.90
44647;DHT22;56315;-33.902;151.160;2022-07-25T10:02:57;14.70;99.90
44647;DHT22;56315;-33.902;151.160;2022-07-25T10:05:11;14.70;99.90
44647;DHT22;56315;-33.902;151.160;2022-07-25T10:07:43;14.50;99.90
44647;DHT22;56315;-33.902;151.160;2022-07-25T10:10:44;14.40;99.90
44647;DHT22;56315;-33.902;151.160;2022-07-25T10:13:14;14.30;99.90
44647;DHT22;56315;-33.902;151.160;2022-07-25T10:15:50;14.10;99.90
44647;DHT22;56315;-33.902;151.160;2022-07-25T10:18:20;14.00;99.90
44647;DHT22;56315;-33.902;151.160;2022-07-25T10:20:51;13.80;99.90
44647;DHT22;56315;-33.902;151.160;2022-07-25T10:23:26;13.80;99.90
44647;DHT22;56315;-33.902;151.160;2022-07-25T10:26:14;13.70;99.90
44647;DHT22;56315;-33.902;151.160;2022-07-25T10:28:46;13.60;99.90
44647;DHT22;56315;-33.902;151.160;2022-07-25T10:31:25;13.50;99.90
44647;DHT22;56315;-33.902;151.160;2022-07-25T10:34:09;13.50;99.90
44647;DHT22;56315;-33.902;151.160;2022-07-25T10:36:50;13.40;99.90
44647;DHT22;56315;-33.902;151.160;2022-07-25T10:39:21;13.40;99.90
44647;DHT22;56315;-33.902;151.160;2022-07-25T10:41:58;13.30;99.90
44647;DHT22;56315;-33.902;151.160;2022-07-25T10:44:39;13.40;99.90
44647;DHT22;56315;-33.902;151.160;2022-07-25T10:47:12;13.50;99.90
44647;DHT22;56315;-33.902;151.160;2022-07-25T10:49:41;13.60;99.90
44647;DHT22;56315;-33.902;151.160;2022-07-25T10:52:19;13.60;99.90
44647;DHT22;56315;-33.902;151.160;2022-07-25T10:54:57;13.60;99.90
44647;DHT22;56315;-33.902;151.160;2022-07-25T10:57:26;13.60;99.90
44647;DHT22;56315;-33.902;151.160;2022-07-25T11:00:03;13.60;99.90
44647;DHT22;56315;-33.902;151.160;2022-07-25T11:02:30;13.60;99.90
44647;DHT22;56315;-33.902;151.160;2022-07-25T11:05:00;13.60;99.90
44647;DHT22;56315;-33.902;151.160;2022-07-25T11:07:30;13.60;99.90
44647;DHT22;56315;-33.902;151.160;2022-07-25T11:10:06;13.60;99.90
44647;DHT22;56315;-33.902;151.160;2022-07-25T11:12:35;13.70;99.90
44647;DHT22;56315;-33.902;151.160;2022-07-25T11:15:05;13.60;99.90
44647;DHT22;56315;-33.902;151.160;2022-07-25T11:17:33;13.60;99.90
44647;DHT22;56315;-33.902;151.160;2022-07-25T11:20:02;13.60;99.90
44647;DHT22;56315;-33.902;151.160;2022-07-25T11:22:31;13.50;99.90
44647;DHT22;56315;-33.902;151.160;2022-07-25T11:25:00;13.50;99.90
44647;DHT22;56315;-33.902;151.160;2022-07-25T11:27:30;13.50;99.90
44647;DHT22;56315;-33.902;151.160;2022-07-25T11:30:16;13.50;99.90
44647;DHT22;56315;-33.902;151.160;2022-07-25T11:32:47;13.50;99.90
44647;DHT22;56315;-33.902;151.160;2022-07-25T11:35:25;13.40;99.90
44647;DHT22;56315;-33.902;151.160;2022-07-25T11:37:53;13.50;99.90
44647;DHT22;56315;-33.902;151.160;2022-07-25T11:40:21;13.50;99.90
44647;DHT22;56315;-33.902;151.160;2022-07-25T11:42:50;13.50;99.90
44647;DHT22;56315;-33.902;151.160;2022-07-25T11:45:29;13.50;99.90
44647;DHT22;56315;-33.902;151.160;2022-07-25T11:48:07;13.60;99.90
44647;DHT22;56315;-33.902;151.160;2022-07-25T11:50:37;13.60;99.90
44647;DHT22;56315;-33.902;151.160;2022-07-25T11:53:06;13.70;99.90
44647;DHT22;56315;-33.902;151.160;2022-07-25T11:55:36;13.60;99.90
44647;DHT22;56315;-33.902;151.160;2022-07-25T11:58:06;13.70;99.90
44647;DHT22;56315;-33.902;151.160;2022-07-25T12:00:39;13.60;99.90
44647;DHT22;56315;-33.902;151.160;2022-07-25T12:03:15;13.60;99.90
44647;DHT22;56315;-33.902;151.160;2022-07-25T12:05:43;13.60;99.90
44647;DHT22;56315;-33.902;151.160;2022-07-25T12:08:17;13.60;99.90
44647;DHT22;56315;-33.902;151.160;2022-07-25T12:10:46;13.50;99.90
44647;DHT22;56315;-33.902;151.160;2022-07-25T12:13:26;13.50;99.90
44647;DHT22;56315;-33.902;151.160;2022-07-25T12:15:56;13.50;99.90
44647;DHT22;56315;-33.902;151.160;2022-07-25T12:18:24;13.50;99.90
44647;DHT22;56315;-33.902;151.160;2022-07-25T12:20:52;13.50;99.90
44647;DHT22;56315;-33.902;151.160;2022-07-25T12:23:19;13.50;99.90
44647;DHT22;56315;-33.902;151.160;2022-07-25T12:25:47;13.40;99.90
44647;DHT22;56315;-33.902;151.160;2022-07-25T12:28:15;13.50;99.90
44647;DHT22;56315;-33.902;151.160;2022-07-25T12:30:45;13.40;99.90
44647;DHT22;56315;-33.902;151.160;2022-07-25T12:33:12;13.40;99.90
44647;DHT22;56315;-33.902;151.160;2022-07-25T12:35:41;13.40;99.90
44647;DHT22;56315;-33.902;151.160;2022-07-25T12:38:08;13.40;99.90
44647;DHT22;56315;-33.902;151.160;2022-07-25T12:40:37;13.40;99.90
44647;DHT22;56315;-33.902;151.160;2022-07-25T12:43:04;13.40;99.90
44647;DHT22;56315;-33.902;151.160;2022-07-25T12:45:32;13.40;99.90
44647;DHT22;56315;-33.902;151.160;2022-07-25T12:47:59;13.30;99.90
44647;DHT22;56315;-33.902;151.160;2022-07-25T12:50:26;13.30;99.90
44647;DHT22;56315;-33.902;151.160;2022-07-25T12:52:54;13.30;99.90
44647;DHT22;56315;-33.902;151.160;2022-07-25T12:55:21;13.30;99.90
44647;DHT22;56315;-33.902;151.160;2022-07-25T12:57:49;13.20;99.90
44647;DHT22;56315;-33.902;151.160;2022-07-25T13:00:19;13.20;99.90
44647;DHT22;56315;-33.902;151.160;2022-07-25T13:02:48;13.10;99.90
44647;DHT22;56315;-33.902;151.160;2022-07-25T13:05:21;13.10;99.90
44647;DHT22;56315;-33.902;151.160;2022-07-25T13:07:49;13.10;99.90
44647;DHT22;56315;-33.902;151.160;2022-07-25T13:10:17;13.10;99.90
44647;DHT22;56315;-33.902;151.160;2022-07-25T13:12:45;13.00;99.90
44647;DHT22;56315;-33.902;151.160;2022-07-25T13:15:13;13.00;99.90
44647;DHT22;56315;-33.902;151.160;2022-07-25T13:17:40;13.00;99.90
44647;DHT22;56315;-33.902;151.160;2022-07-25T13:20:08;13.00;99.90
44647;DHT22;56315;-33.902;151.160;2022-07-25T13:22:36;12.90;99.90
44647;DHT22;56315;-33.902;151.160;2022-07-25T13:25:03;13.00;99.90
44647;DHT22;56315;-33.902;151.160;2022-07-25T13:27:31;12.90;99.90
44647;DHT22;56315;-33.902;151.160;2022-07-25T13:29:58;12.90;99.90
44647;DHT22;56315;-33.902;151.160;2022-07-25T13:32:25;12.90;99.90
44647;DHT22;56315;-33.902;151.160;2022-07-25T13:34:54;12.90;99.90
44647;DHT22;56315;-33.902;151.160;2022-07-25T13:37:21;12.80;99.90
44647;DHT22;56315;-33.902;151.160;2022-07-25T13:39:48;12.80;99.90
44647;DHT22;56315;-33.902;151.160;2022-07-25T13:42:16;12.70;99.90
44647;DHT22;56315;-33.902;151.160;2022-07-25T13:44:44;12.70;99.90
44647;DHT22;56315;-33.902;151.160;2022-07-25T13:47:11;12.70;99.90
44647;DHT22;56315;-33.902;151.160;2022-07-25T13:49:38;12.70;99.90
44647;DHT22;56315;-33.902;151.160;2022-07-25T13:52:06;12.70;99.90
44647;DHT22;56315;-33.902;151.160;2022-07-25T13:54:34;12.70;99.90
44647;DHT22;56315;-33.902;151.160;2022-07-25T13:57:02;12.60;99.90
44647;DHT22;56315;-33.902;151.160;2022-07-25T13:59:30;12.60;99.90
44647;DHT22;56315;-33.902;151.160;2022-07-25T14:01:57;12.60;99.90
44647;DHT22;56315;-33.902;151.160;2022-07-25T14:04:24;12.50;99.90
44647;DHT22;56315;-33.902;151.160;2022-07-25T14:06:52;12.50;99.90
44647;DHT22;56315;-33.902;151.160;2022-07-25T14:09:20;12.50;99.90
44647;DHT22;56315;-33.902;151.160;2022-07-25T14:11:48;12.50;99.90
44647;DHT22;56315;-33.902;151.160;2022-07-25T14:14:15;12.40;99.90
44647;DHT22;56315;-33.902;151.160;2022-07-25T14:16:43;12.40;99.90
44647;DHT22;56315;-33.902;151.160;2022-07-25T14:19:10;12.40;99.90
44647;DHT22;56315;-33.902;151.160;2022-07-25T14:21:38;12.40;99.90
44647;DHT22;56315;-33.902;151.160;2022-07-25T14:24:05;12.50;99.90
44647;DHT22;56315;-33.902;151.160;2022-07-25T14:26:34;12.50;99.90
44647;DHT22;56315;-33.902;151.160;2022-07-25T14:29:01;12.50;99.90
44647;DHT22;56315;-33.902;151.160;2022-07-25T14:31:29;12.50;99.90
44647;DHT22;56315;-33.902;151.160;2022-07-25T14:33:58;12.50;99.90
44647;DHT22;56315;-33.902;151.160;2022-07-25T14:36:25;12.50;99.90
44647;DHT22;56315;-33.902;151.160;2022-07-25T14:38:53;12.50;99.90
44647;DHT22;56315;-33.902;151.160;2022-07-25T14:41:20;12.40;99.90
44647;DHT22;56315;-33.902;151.160;2022-07-25T14:43:48;12.30;99.90
44647;DHT22;56315;-33.902;151.160;2022-07-25T14:46:15;12.20;99.90
44647;DHT22;56315;-33.902;151.160;2022-07-25T14:48:42;12.10;99.90
44647;DHT22;56315;-33.902;151.160;2022-07-25T14:51:10;12.00;99.90
44647;DHT22;56315;-33.902;151.160;2022-07-25T14:53:37;12.00;99.90
44647;DHT22;56315;-33.902;151.160;2022-07-25T14:56:05;11.90;99.90
44647;DHT22;56315;-33.902;151.160;2022-07-25T14:58:32;11.90;99.90
44647;DHT22;56315;-33.902;151.160;2022-07-25T15:01:00;11.80;99.90
44647;DHT22;56315;-33.902;151.160;2022-07-25T15:03:28;11.90;99.90
44647;DHT22;56315;-33.902;151.160;2022-07-25T15:05:55;11.90;99.90
44647;DHT22;56315;-33.902;151.160;2022-07-25T15:08:23;12.00;99.90
44647;DHT22;56315;-33.902;151.160;2022-07-25T15:10:50;12.00;99.90
44647;DHT22;56315;-33.902;151.160;2022-07-25T15:13:17;12.00;99.90
44647;DHT22;56315;-33.902;151.160;2022-07-25T15:15:45;12.00;99.90
44647;DHT22;56315;-33.902;151.160;2022-07-25T15:18:12;12.00;99.90